Time;durP1;ratioP1;P1;durP2;ratioP2;P2;SDS_P1;SDS_P2;PMS_P1;PMS_P2;Temp;Humidity;BMP_temperature;BMP_pressure;BME280_temperature;BME280_humidity;BME280_pressure;Samples;Min_cycle;Max_cycle;Signal;HPM_P1;HPM_P2
2021/12/22 00:01:16;;;;;;;31.23;18.67;;;;;;;-0.83;90.68;102764.13;5021691;28;20041;-79
2021/12/22 00:03:46;;;;;;;33.28;18.08;;;;;;;-0.84;90.38;102763.22;5023687;28;20038;-79
2021/12/22 00:06:13;;;;;;;36.63;19.08;;;;;;;-0.83;90.77;102756.41;5027133;28;20034;-79
2021/12/22 00:08:39;;;;;;;34.45;19.33;;;;;;;-0.85;90.66;102748.63;5026164;28;20048;-79
2021/12/22 00:11:04;;;;;;;30.02;18.40;;;;;;;-0.85;90.61;102751.19;5026143;28;20321;-79
2021/12/22 00:13:30;;;;;;;34.67;18.40;;;;;;;-0.86;90.68;102735.69;5007759;28;20052;-79
2021/12/22 00:15:55;;;;;;;30.40;17.63;;;;;;;-0.86;90.60;102734.00;5026166;28;20038;-79
2021/12/22 00:18:21;;;;;;;30.25;17.98;;;;;;;-0.86;90.48;102728.84;5022836;28;20030;-79
2021/12/22 00:20:46;;;;;;;28.98;18.23;;;;;;;-0.85;90.73;102727.19;5038552;28;20026;-79
2021/12/22 00:23:12;;;;;;;42.40;18.88;;;;;;;-0.86;90.63;102727.97;5023310;28;20034;-79
2021/12/22 00:25:37;;;;;;;28.88;17.95;;;;;;;-0.86;90.65;102731.41;5022277;28;20361;-79
2021/12/22 00:28:03;;;;;;;37.15;18.38;;;;;;;-0.86;90.55;102730.56;5042226;28;20034;-79
2021/12/22 00:30:29;;;;;;;35.17;19.13;;;;;;;-0.87;90.62;102726.25;5022061;28;20292;-79
2021/12/22 00:33:01;;;;;;;31.08;18.77;;;;;;;-0.88;90.43;102727.06;5022872;28;20030;-79
2021/12/22 00:35:30;;;;;;;29.35;18.25;;;;;;;-0.88;90.28;102721.91;5014823;28;20021;-79
2021/12/22 00:37:55;;;;;;;35.17;18.30;;;;;;;-0.90;90.39;102727.00;5010083;28;20109;-79
2021/12/22 00:40:21;;;;;;;31.50;18.38;;;;;;;-0.90;90.56;102723.56;5025462;28;20041;-79
2021/12/22 00:42:46;;;;;;;31.55;18.25;;;;;;;-0.91;90.60;102719.22;5026938;28;20045;-79
2021/12/22 00:45:12;;;;;;;26.70;17.10;;;;;;;-0.92;90.63;102727.78;5024393;28;20050;-79
2021/12/22 00:47:37;;;;;;;30.88;17.52;;;;;;;-0.92;90.49;102726.06;5006454;28;20034;-79
2021/12/22 00:50:03;;;;;;;32.88;17.83;;;;;;;-0.95;90.36;102720.78;5006791;28;20048;-79
2021/12/22 00:52:28;;;;;;;38.53;18.77;;;;;;;-0.96;90.24;102724.22;4983133;28;20021;-79
2021/12/22 00:54:54;;;;;;;25.92;16.90;;;;;;;-0.98;90.19;102725.84;5008536;28;20024;-79
2021/12/22 00:57:20;;;;;;;34.08;19.10;;;;;;;-0.97;90.51;102735.31;5025388;28;20060;-79
2021/12/22 00:59:45;;;;;;;27.80;18.70;;;;;;;-0.99;90.59;102732.66;5036381;28;20030;-79
2021/12/22 01:02:12;;;;;;;35.38;18.48;;;;;;;-0.99;90.63;102731.78;4989879;28;20105;-79
2021/12/22 01:04:37;;;;;;;32.95;18.80;;;;;;;-0.99;90.70;102736.94;4998155;28;20464;-79
2021/12/22 01:07:03;;;;;;;29.92;18.70;;;;;;;-1.00;90.73;102735.19;5026829;28;20033;-79
2021/12/22 01:09:29;;;;;;;36.10;18.95;;;;;;;-1.01;90.82;102734.31;5009074;28;20325;-79
2021/12/22 01:11:54;;;;;;;34.58;18.90;;;;;;;-1.01;90.62;102746.31;5026605;28;20089;-79
2021/12/22 01:14:21;;;;;;;33.38;19.23;;;;;;;-1.03;90.68;102748.81;5017635;28;20042;-79
2021/12/22 01:16:49;;;;;;;29.48;17.30;;;;;;;-1.05;90.60;102747.88;5019638;28;20038;-79
2021/12/22 01:19:20;;;;;;;30.83;17.10;;;;;;;-1.08;90.45;102741.75;5005793;28;20038;-79
2021/12/22 01:21:51;;;;;;;30.95;17.42;;;;;;;-1.09;90.19;102746.03;5005421;28;20030;-79
2021/12/22 01:24:32;;;;;;;33.25;18.65;;;;;;;-1.10;90.35;102740.81;5007009;28;20042;-79
2021/12/22 01:27:04;;;;;;;32.33;17.38;;;;;;;-1.12;90.47;102743.31;5002207;28;20153;-79
2021/12/22 01:29:33;;;;;;;26.35;16.63;;;;;;;-1.13;90.47;102738.97;5006988;28;20038;-79
2021/12/22 01:31:59;;;;;;;28.77;17.33;;;;;;;-1.13;90.58;102741.56;5008413;28;20030;-79
2021/12/22 01:34:25;;;;;;;37.90;18.02;;;;;;;-1.12;90.70;102740.75;5026148;28;20037;-79
2021/12/22 01:36:50;;;;;;;36.30;18.75;;;;;;;-1.13;90.75;102736.41;5008957;28;20236;-79
2021/12/22 01:39:16;;;;;;;32.58;18.15;;;;;;;-1.13;90.80;102736.41;4997221;28;20056;-79
2021/12/22 01:41:41;;;;;;;37.60;19.20;;;;;;;-1.12;90.65;102734.75;5008205;28;20041;-79
2021/12/22 01:44:09;;;;;;;36.92;18.67;;;;;;;-1.14;90.83;102736.38;5019029;28;20056;-79
2021/12/22 01:49:39;;;;;;;38.00;18.27;;;;;;;-1.15;90.56;102727.75;5008557;28;20229;-79
2021/12/22 01:52:06;;;;;;;37.33;19.20;;;;;;;-1.15;90.77;102727.75;5005316;28;20034;-79
2021/12/22 01:54:46;;;;;;;37.78;19.20;;;;;;;-1.15;90.72;102725.19;5005034;28;20064;-79
2021/12/22 01:57:12;;;;;;;36.42;19.05;;;;;;;-1.16;90.73;102716.63;5008072;28;20025;-79
2021/12/22 01:59:43;;;;;;;32.83;18.77;;;;;;;-1.17;90.72;102713.97;5005904;28;20038;-79
2021/12/22 02:02:09;;;;;;;34.13;18.60;;;;;;;-1.17;90.64;102720.00;4973082;28;20034;-79
2021/12/22 02:04:37;;;;;;;32.75;18.52;;;;;;;-1.18;90.45;102715.69;5014134;28;20267;-79
2021/12/22 02:07:03;;;;;;;39.55;19.35;;;;;;;-1.17;90.69;102714.84;4982883;28;20034;-79
2021/12/22 02:09:58;;;;;;;39.67;19.23;;;;;;;-1.17;90.61;102708.84;5007806;28;20069;-79
2021/12/22 02:12:25;;;;;;;38.65;19.95;;;;;;;-1.18;90.58;102709.69;5012430;28;20065;-79
2021/12/22 02:14:50;;;;;;;30.17;17.63;;;;;;;-1.19;90.77;102710.47;5023336;28;20046;-79
2021/12/22 02:17:16;;;;;;;33.22;18.05;;;;;;;-1.18;90.90;102714.81;5025639;28;20227;-79
2021/12/22 02:19:46;;;;;;;33.70;18.33;;;;;;;-1.20;90.82;102714.75;5004357;28;20349;-79
2021/12/22 02:22:14;;;;;;;32.75;19.35;;;;;;;-1.20;90.68;102719.00;4988700;28;20026;-79
2021/12/22 02:24:49;;;;;;;35.47;18.80;;;;;;;-1.22;90.59;102718.06;5016552;28;20034;-79
2021/12/22 02:27:26;;;;;;;34.38;17.58;;;;;;;-1.22;90.32;102716.41;4989422;28;20494;-79
2021/12/22 02:29:57;;;;;;;35.78;17.85;;;;;;;-1.22;90.09;102715.50;5024025;28;20041;-79
2021/12/22 02:35:00;;;;;;;34.95;17.35;;;;;;;-1.22;90.49;102734.41;5020145;28;20357;-79
2021/12/22 02:37:26;;;;;;;35.03;18.33;;;;;;;-1.23;90.72;102736.91;4989541;28;20080;-79
2021/12/22 02:39:58;;;;;;;32.60;17.95;;;;;;;-1.24;90.47;102741.13;4988377;28;20353;-79
2021/12/22 02:42:27;;;;;;;33.95;18.90;;;;;;;-1.23;90.57;102739.47;4981699;28;20245;-79
2021/12/22 02:44:52;;;;;;;33.15;17.50;;;;;;;-1.24;90.61;102740.28;5008284;28;20050;-79
2021/12/22 02:47:19;;;;;;;33.50;17.98;;;;;;;-1.26;90.84;102753.06;5024296;28;20052;-79
2021/12/22 02:49:45;;;;;;;36.33;17.98;;;;;;;-1.26;90.58;102753.06;5024562;28;20034;-79
2021/12/22 02:52:10;;;;;;;29.88;17.90;;;;;;;-1.27;90.79;102738.47;4987946;28;20046;-79
2021/12/22 02:54:42;;;;;;;34.65;18.13;;;;;;;-1.25;90.92;102743.69;4993926;28;20193;-79
2021/12/22 02:57:20;;;;;;;35.50;18.15;;;;;;;-1.26;90.77;102745.34;5024637;28;20054;-79
2021/12/22 03:02:41;;;;;;;31.10;17.02;;;;;;;-1.28;90.88;102739.28;5033867;28;20073;-79
2021/12/22 03:05:07;;;;;;;36.72;17.38;;;;;;;-1.27;90.63;102738.47;5024683;28;20109;-79
2021/12/22 03:07:33;;;;;;;39.33;18.58;;;;;;;-1.28;90.55;102744.41;5014425;28;20033;-79
2021/12/22 03:10:02;;;;;;;32.10;17.55;;;;;;;-1.30;90.78;102738.34;5007608;28;20022;-79
2021/12/22 03:12:29;;;;;;;35.95;18.80;;;;;;;-1.29;90.58;102727.25;5013340;28;20050;-79
2021/12/22 03:14:55;;;;;;;30.38;16.38;;;;;;;-1.30;90.68;102730.63;4994079;28;20057;-80
2021/12/22 03:17:20;;;;;;;31.60;17.02;;;;;;;-1.31;90.69;102730.56;5004147;28;20092;-80
2021/12/22 03:19:46;;;;;;;34.50;17.92;;;;;;;-1.31;90.75;102733.13;5000000;28;20038;-80
2021/12/22 03:22:12;;;;;;;35.63;18.13;;;;;;;-1.33;90.72;102725.38;5004841;28;20041;-80
2021/12/22 03:24:39;;;;;;;33.42;17.23;;;;;;;-1.34;90.49;102715.06;5023283;28;20238;-79
2021/12/22 03:27:07;;;;;;;30.48;16.42;;;;;;;-1.34;90.66;102722.75;5024169;28;20030;-79
2021/12/22 03:29:33;;;;;;;34.97;17.02;;;;;;;-1.36;90.43;102726.13;5024710;28;20107;-79
2021/12/22 03:31:59;;;;;;;31.52;16.67;;;;;;;-1.38;90.58;102724.34;5025025;28;20034;-79
2021/12/22 03:34:24;;;;;;;35.33;17.23;;;;;;;-1.39;90.54;102726.00;5024854;28;20071;-79
2021/12/22 03:36:50;;;;;;;30.77;17.20;;;;;;;-1.39;90.58;102720.88;5007825;28;20038;-79
2021/12/22 03:39:16;;;;;;;32.65;16.77;;;;;;;-1.41;90.59;102719.94;5026433;28;20050;-79
2021/12/22 03:41:42;;;;;;;32.40;16.73;;;;;;;-1.42;90.57;102717.31;5027080;28;20041;-79
2021/12/22 03:44:07;;;;;;;33.95;17.38;;;;;;;-1.42;90.47;102723.34;5011742;28;20103;-79
2021/12/22 03:46:33;;;;;;;34.03;17.48;;;;;;;-1.43;90.42;102721.56;5011558;28;20037;-79
2021/12/22 03:48:58;;;;;;;39.08;17.85;;;;;;;-1.44;90.34;102716.38;5029201;28;20121;-79
2021/12/22 03:51:27;;;;;;;37.17;16.52;;;;;;;-1.46;90.51;102716.31;5024628;28;20050;-79
2021/12/22 03:53:52;;;;;;;36.83;17.55;;;;;;;-1.47;90.30;102701.72;5008201;28;20122;-79
2021/12/22 03:56:18;;;;;;;35.78;17.42;;;;;;;-1.48;90.38;102706.78;4991865;28;20030;-79
2021/12/22 03:58:43;;;;;;;33.70;17.63;;;;;;;-1.50;90.45;102706.72;5008061;28;20029;-79
2021/12/22 04:01:09;;;;;;;32.47;17.30;;;;;;;-1.50;90.39;102701.59;5007962;28;20034;-79
2021/12/22 04:03:36;;;;;;;31.63;16.90;;;;;;;-1.50;90.36;102703.28;4994233;28;20032;-79
2021/12/22 04:06:02;;;;;;;32.60;16.23;;;;;;;-1.50;90.48;102701.59;5027328;28;20041;-79
2021/12/22 04:08:27;;;;;;;33.10;16.83;;;;;;;-1.51;90.73;102707.56;5028465;28;20348;-79
2021/12/22 04:10:53;;;;;;;36.55;18.48;;;;;;;-1.51;90.44;102707.56;5014538;28;20042;-79
2021/12/22 04:13:20;;;;;;;33.33;17.13;;;;;;;-1.51;90.61;102696.38;5039106;28;20073;-79
2021/12/22 04:15:45;;;;;;;33.63;18.33;;;;;;;-1.53;90.33;102692.88;5011753;28;20026;-79
2021/12/22 04:18:11;;;;;;;29.38;16.27;;;;;;;-1.55;90.60;102683.44;5012042;28;20413;-79
2021/12/22 04:20:37;;;;;;;30.48;16.63;;;;;;;-1.53;90.67;102705.72;5027987;28;20038;-79
2021/12/22 04:23:02;;;;;;;30.65;17.55;;;;;;;-1.55;90.51;102685.09;5016435;28;20034;-79
2021/12/22 04:25:28;;;;;;;31.98;17.13;;;;;;;-1.55;90.66;102686.00;5008059;28;20030;-79
2021/12/22 04:27:55;;;;;;;37.13;17.25;;;;;;;-1.55;90.33;102683.44;4992619;28;20049;-79
2021/12/22 04:30:21;;;;;;;34.83;17.15;;;;;;;-1.55;90.56;102680.88;5010126;28;20034;-79
2021/12/22 04:32:47;;;;;;;41.88;17.98;;;;;;;-1.55;90.58;102679.97;5007588;28;20042;-79
2021/12/22 04:35:12;;;;;;;31.73;17.10;;;;;;;-1.56;90.75;102673.97;5008264;28;20034;-79
2021/12/22 04:37:37;;;;;;;33.10;17.63;;;;;;;-1.56;90.82;102673.97;5009474;28;20038;-79
2021/12/22 04:40:04;;;;;;;35.17;18.13;;;;;;;-1.57;90.73;102674.78;4998343;28;20060;-79
2021/12/22 04:42:29;;;;;;;26.63;15.95;;;;;;;-1.58;90.78;102672.16;5043179;28;20068;-78
2021/12/22 04:44:58;;;;;;;28.35;16.33;;;;;;;-1.59;90.74;102667.84;5011263;28;20236;-79
2021/12/22 04:47:23;;;;;;;36.80;18.38;;;;;;;-1.58;90.77;102670.47;5018183;28;20034;-81
2021/12/22 04:49:49;;;;;;;36.20;17.27;;;;;;;-1.59;90.66;102661.00;5010438;28;20144;-81
2021/12/22 04:52:17;;;;;;;36.03;17.63;;;;;;;-1.59;90.81;102662.69;5024082;28;20044;-81
2021/12/22 04:55:02;;;;;;;38.30;18.20;;;;;;;-1.60;90.82;102668.63;5059548;28;20374;-81
2021/12/22 04:57:27;;;;;;;39.58;18.40;;;;;;;-1.61;90.73;102665.19;5030707;28;20072;-79
2021/12/22 04:59:53;;;;;;;33.58;17.17;;;;;;;-1.61;90.75;102669.47;5030758;28;20029;-79
2021/12/22 05:02:18;;;;;;;32.50;16.80;;;;;;;-1.61;90.90;102670.34;5030357;28;20411;-79
2021/12/22 05:04:44;;;;;;;32.40;17.35;;;;;;;-1.62;90.96;102662.56;5046176;28;20224;-79
2021/12/22 05:07:09;;;;;;;36.97;17.88;;;;;;;-1.61;91.08;102654.06;5046507;28;20065;-79
2021/12/22 05:09:35;;;;;;;29.58;17.33;;;;;;;-1.63;90.87;102654.00;5043806;28;20044;-79
2021/12/22 05:12:00;;;;;;;37.38;16.52;;;;;;;-1.62;90.75;102660.00;5013059;28;20040;-79
2021/12/22 05:14:25;;;;;;;29.92;17.58;;;;;;;-1.64;90.52;102646.22;5026616;28;20043;-79
2021/12/22 05:16:53;;;;;;;31.67;16.80;;;;;;;-1.66;90.36;102645.28;5030699;28;20021;-79
2021/12/22 05:19:18;;;;;;;37.10;16.27;;;;;;;-1.68;90.15;102645.22;5030056;28;20040;-79
2021/12/22 05:21:44;;;;;;;41.70;16.77;;;;;;;-1.68;90.25;102644.34;5009249;28;20030;-79
2021/12/22 05:24:10;;;;;;;35.70;17.25;;;;;;;-1.69;90.14;102648.63;5034569;28;20052;-79
2021/12/22 05:26:35;;;;;;;34.63;16.70;;;;;;;-1.71;90.26;102650.25;5030946;28;20052;-78
2021/12/22 05:29:00;;;;;;;37.92;16.77;;;;;;;-1.71;90.19;102645.13;5027127;28;20065;-79
2021/12/22 05:31:27;;;;;;;31.67;17.73;;;;;;;-1.71;90.41;102647.69;5018890;28;20041;-79
2021/12/22 05:33:53;;;;;;;34.45;15.90;;;;;;;-1.72;90.52;102648.50;5044811;28;20047;-79
2021/12/22 05:36:18;;;;;;;32.63;18.10;;;;;;;-1.73;90.40;102654.44;5026814;28;20037;-79
2021/12/22 05:38:44;;;;;;;38.47;17.08;;;;;;;-1.72;90.63;102663.91;5010727;28;20044;-79
2021/12/22 05:41:09;;;;;;;34.95;16.88;;;;;;;-1.74;90.64;102651.00;5010037;28;20048;-79
2021/12/22 05:43:35;;;;;;;36.75;17.75;;;;;;;-1.72;90.59;102656.19;5012670;28;20025;-79
2021/12/22 05:46:00;;;;;;;34.00;18.02;;;;;;;-1.72;90.60;102655.34;5010313;28;20048;-79
2021/12/22 05:48:26;;;;;;;33.45;16.48;;;;;;;-1.74;90.71;102650.13;5030069;28;20037;-79
2021/12/22 05:50:54;;;;;;;37.25;16.52;;;;;;;-1.75;90.51;102650.94;5024083;28;20386;-79
2021/12/22 05:53:19;;;;;;;35.72;17.25;;;;;;;-1.75;90.69;102649.25;5031340;28;20036;-79
2021/12/22 05:55:45;;;;;;;35.67;18.30;;;;;;;-1.74;90.76;102658.72;5030037;28;20084;-79
2021/12/22 05:58:10;;;;;;;36.33;17.80;;;;;;;-1.75;90.56;102649.25;5046116;28;20116;-79
2021/12/22 06:00:35;;;;;;;35.90;17.73;;;;;;;-1.74;90.80;102643.28;5045787;28;20037;-79
2021/12/22 06:03:01;;;;;;;37.83;17.42;;;;;;;-1.73;90.75;102654.44;5044901;28;20341;-79
2021/12/22 06:05:26;;;;;;;35.38;17.13;;;;;;;-1.74;90.86;102653.56;5011056;28;20033;-79
2021/12/22 06:07:52;;;;;;;37.72;17.63;;;;;;;-1.73;91.08;102646.72;5022902;28;20037;-79
2021/12/22 06:10:17;;;;;;;36.63;16.42;;;;;;;-1.72;90.95;102650.19;5024145;28;20033;-79
2021/12/22 06:12:43;;;;;;;32.67;16.50;;;;;;;-1.72;90.90;102645.06;5026981;28;20378;-79
2021/12/22 06:15:08;;;;;;;33.78;16.70;;;;;;;-1.74;90.93;102640.72;5025971;28;20048;-79
2021/12/22 06:17:34;;;;;;;35.28;17.45;;;;;;;-1.74;90.89;102635.59;5041404;28;20072;-79
2021/12/22 06:19:59;;;;;;;34.85;17.83;;;;;;;-1.74;90.85;102643.28;5006225;28;20042;-79
2021/12/22 06:22:26;;;;;;;32.58;16.00;;;;;;;-1.72;90.94;102642.50;5024566;28;20067;-79
2021/12/22 06:24:51;;;;;;;31.02;17.40;;;;;;;-1.73;90.95;102639.03;5025013;28;20048;-79
2021/12/22 06:27:17;;;;;;;36.30;16.95;;;;;;;-1.73;91.00;102639.03;5010836;28;20037;-79
2021/12/22 06:29:42;;;;;;;33.85;17.75;;;;;;;-1.74;90.97;102647.56;5044362;28;20048;-79
2021/12/22 06:32:08;;;;;;;37.95;17.38;;;;;;;-1.74;91.05;102638.16;5045694;28;20044;-79
2021/12/22 06:34:33;;;;;;;34.35;16.40;;;;;;;-1.73;91.13;102639.03;5027616;28;20319;-79
2021/12/22 06:36:59;;;;;;;30.00;16.55;;;;;;;-1.74;91.07;102635.59;5027964;28;20130;-79
2021/12/22 06:39:25;;;;;;;33.25;16.65;;;;;;;-1.75;91.10;102636.41;5011388;28;20045;-80
2021/12/22 06:41:50;;;;;;;34.97;17.08;;;;;;;-1.74;91.15;102633.03;5007048;28;20046;-80
2021/12/22 06:44:15;;;;;;;33.67;17.80;;;;;;;-1.72;91.09;102645.06;4991563;28;20049;-79
2021/12/22 06:46:42;;;;;;;34.00;17.90;;;;;;;-1.74;90.98;102648.44;5005665;28;20264;-79
2021/12/22 06:49:10;;;;;;;37.97;18.02;;;;;;;-1.71;90.80;102641.66;5009306;28;20066;-80
2021/12/22 06:51:36;;;;;;;33.03;17.65;;;;;;;-1.72;91.10;102647.63;5019956;28;20041;-79
2021/12/22 06:54:02;;;;;;;34.47;17.05;;;;;;;-1.74;91.11;102640.72;5055972;28;20094;-79
2021/12/22 06:56:27;;;;;;;34.85;17.75;;;;;;;-1.74;91.24;102639.84;5031010;28;20049;-79
2021/12/22 06:58:54;;;;;;;33.90;17.88;;;;;;;-1.75;91.07;102646.69;5051151;28;20040;-80
2021/12/22 07:01:22;;;;;;;28.60;15.73;;;;;;;-1.74;91.01;102647.56;5008492;28;20052;-79
2021/12/22 07:03:47;;;;;;;30.80;17.50;;;;;;;-1.74;91.12;102648.44;5026567;28;20041;-79
2021/12/22 07:06:13;;;;;;;32.58;16.50;;;;;;;-1.73;91.23;102644.16;5043383;28;20041;-79
2021/12/22 07:08:38;;;;;;;33.80;16.42;;;;;;;-1.74;91.30;102643.28;5009784;28;20232;-79
2021/12/22 07:11:03;;;;;;;37.53;16.67;;;;;;;-1.74;91.38;102640.72;5022721;28;20029;-79
2021/12/22 07:13:30;;;;;;;38.88;17.65;;;;;;;-1.74;91.45;102638.16;5009152;28;20037;-79
2021/12/22 07:15:55;;;;;;;43.75;17.77;;;;;;;-1.74;91.35;102635.59;4992201;28;20034;-79
2021/12/22 07:18:21;;;;;;;30.73;17.05;;;;;;;-1.71;91.45;102639.09;5009348;28;20355;-79
2021/12/22 07:20:46;;;;;;;36.95;17.13;;;;;;;-1.72;91.34;102635.66;5022080;28;20041;-79
2021/12/22 07:23:11;;;;;;;35.67;16.90;;;;;;;-1.72;91.45;102638.22;5023801;28;20051;-79
2021/12/22 07:25:37;;;;;;;31.60;16.95;;;;;;;-1.72;91.24;102630.50;5036540;28;20068;-79
2021/12/22 07:28:02;;;;;;;32.25;17.27;;;;;;;-1.71;91.19;102626.25;5004869;28;20030;-79
2021/12/22 07:30:28;;;;;;;35.33;17.40;;;;;;;-1.72;91.18;102612.53;5017127;28;20042;-79
2021/12/22 07:32:54;;;;;;;34.55;17.38;;;;;;;-1.72;91.36;102617.66;5015550;28;20041;-79
2021/12/22 07:35:41;;;;;;;35.05;16.73;;;;;;;-1.71;91.27;102611.72;5035748;28;20038;-79
2021/12/22 07:38:30;;;;;;;30.23;16.00;;;;;;;-1.71;91.46;102608.25;5035419;28;20291;-79
2021/12/22 07:40:56;;;;;;;29.50;16.02;;;;;;;-1.72;91.21;102617.66;5035430;28;20062;-79
2021/12/22 07:43:22;;;;;;;35.08;17.35;;;;;;;-1.71;91.25;102618.53;5005675;28;20129;-79
2021/12/22 07:45:47;;;;;;;26.85;15.13;;;;;;;-1.68;91.40;102610.97;5006643;28;20053;-79
2021/12/22 07:48:13;;;;;;;33.63;16.33;;;;;;;-1.68;91.33;102616.09;5024098;28;20060;-79
2021/12/22 07:50:38;;;;;;;37.10;17.42;;;;;;;-1.69;91.40;102617.78;5023698;28;20399;-79
2021/12/22 07:53:04;;;;;;;38.15;16.10;;;;;;;-1.68;91.34;102619.53;5031267;28;20430;-80
2021/12/22 07:55:29;;;;;;;30.95;16.67;;;;;;;-1.67;91.55;102631.56;5037324;28;20037;-80
2021/12/22 07:57:55;;;;;;;31.60;16.08;;;;;;;-1.66;91.61;102628.16;5021163;28;20398;-80
2021/12/22 08:00:20;;;;;;;28.05;16.23;;;;;;;-1.65;91.63;102634.22;5004977;28;20060;-80
2021/12/22 08:02:45;;;;;;;34.17;15.85;;;;;;;-1.63;91.67;102642.84;5041027;28;20045;-79
2021/12/22 08:05:11;;;;;;;28.67;16.25;;;;;;;-1.64;91.53;102634.25;5023169;28;20361;-80
2021/12/22 08:07:36;;;;;;;32.33;16.80;;;;;;;-1.64;91.59;102643.66;5031808;28;20043;-80
2021/12/22 08:10:05;;;;;;;30.02;16.20;;;;;;;-1.64;91.72;102651.34;5009579;28;20057;-80
2021/12/22 08:12:31;;;;;;;;;;;;;;;-1.63;91.90;102645.41;5005059;28;20033;-80
2021/12/22 08:14:56;;;;;;;30.55;16.40;;;;;;;-1.64;91.86;102641.06;5004373;28;19917;-80
2021/12/22 08:17:22;;;;;;;35.70;16.42;;;;;;;-1.63;92.08;102641.16;5004321;28;20040;-80
2021/12/22 08:19:48;;;;;;;32.63;15.57;;;;;;;-1.62;91.99;102639.44;5021768;28;20051;-80
2021/12/22 08:22:14;;;;;;;37.58;17.05;;;;;;;-1.61;92.03;102638.63;5037360;28;20040;-80
2021/12/22 08:24:39;;;;;;;35.30;16.73;;;;;;;-1.61;91.86;102642.06;5021535;28;20314;-80
2021/12/22 08:27:05;;;;;;;29.02;15.77;;;;;;;-1.60;92.04;102635.22;5006652;28;20037;-80
2021/12/22 08:29:30;;;;;;;33.58;15.60;;;;;;;-1.60;91.90;102632.66;5023702;28;20056;-80
2021/12/22 08:31:56;;;;;;;30.85;15.40;;;;;;;-1.57;91.86;102630.22;5038043;28;20316;-80
2021/12/22 08:34:28;;;;;;;31.95;16.08;;;;;;;-1.57;92.06;102630.22;5024896;28;20029;-80
2021/12/22 08:39:40;;;;;;;27.17;15.93;;;;;;;-1.53;92.21;102629.50;5007478;28;20056;-80
2021/12/22 08:42:06;;;;;;;30.27;16.38;;;;;;;-1.52;92.07;102625.28;5028879;28;20064;-80
2021/12/22 08:44:33;;;;;;;26.98;15.50;;;;;;;-1.50;92.22;102621.06;5010164;28;20037;-80
2021/12/22 08:46:58;;;;;;;26.52;15.60;;;;;;;-1.51;92.20;102620.19;5044426;28;20053;-80
2021/12/22 08:49:24;;;;;;;27.88;15.52;;;;;;;-1.49;92.29;102617.66;5045649;28;20367;-80
2021/12/22 08:51:49;;;;;;;34.05;16.08;;;;;;;-1.48;92.21;102624.56;5044707;28;20037;-80
2021/12/22 08:54:14;;;;;;;28.98;15.07;;;;;;;-1.46;92.33;102620.34;5009994;28;20030;-80
2021/12/22 08:56:40;;;;;;;26.05;15.18;;;;;;;-1.45;92.33;102622.97;5027880;28;20037;-80
2021/12/22 08:59:07;;;;;;;28.70;16.13;;;;;;;-1.44;92.55;102614.44;5021866;28;20344;-80
2021/12/22 09:01:32;;;;;;;27.02;15.65;;;;;;;-1.42;92.54;102619.63;5027356;28;20033;-80
2021/12/22 09:03:58;;;;;;;29.60;16.00;;;;;;;-1.41;92.64;102613.69;5028790;28;20033;-80
2021/12/22 09:06:23;;;;;;;28.30;15.82;;;;;;;-1.39;92.47;102617.19;5010385;28;20022;-80
2021/12/22 09:08:49;;;;;;;28.15;15.60;;;;;;;-1.37;92.70;102623.25;5022554;28;20120;-80
2021/12/22 09:11:14;;;;;;;26.27;15.43;;;;;;;-1.34;92.41;102622.50;5008397;28;20021;-80
2021/12/22 09:13:40;;;;;;;27.88;15.75;;;;;;;-1.31;92.62;102625.19;5024333;28;20029;-80
2021/12/22 09:16:06;;;;;;;27.77;15.93;;;;;;;-1.29;92.71;102631.25;5020074;28;20328;-80
2021/12/22 09:18:31;;;;;;;30.10;16.50;;;;;;;-1.27;92.75;102637.34;5020359;28;20368;-79
2021/12/22 09:20:57;;;;;;;31.52;16.83;;;;;;;-1.26;92.43;102631.38;5001334;28;20029;-80
2021/12/22 09:23:22;;;;;;;35.38;16.13;;;;;;;-1.23;92.88;102632.34;5003349;28;20029;-80
2021/12/22 09:25:48;;;;;;;34.35;16.20;;;;;;;-1.22;92.82;102622.94;5023215;28;20029;-80
2021/12/22 09:28:14;;;;;;;33.65;16.90;;;;;;;-1.20;93.06;102627.34;5023619;28;20041;-80
2021/12/22 09:30:40;;;;;;;29.55;15.93;;;;;;;-1.18;93.32;102620.56;5020850;28;20049;-80
2021/12/22 09:33:07;;;;;;;30.38;16.08;;;;;;;-1.14;93.15;102615.53;5038265;28;20072;-80
2021/12/22 09:35:33;;;;;;;31.83;17.25;;;;;;;-1.13;93.22;102618.13;5022604;28;20056;-80
2021/12/22 09:38:01;;;;;;;28.85;16.52;;;;;;;-1.12;93.22;102619.91;5025493;28;20029;-80
2021/12/22 09:40:26;;;;;;;30.85;17.00;;;;;;;-1.10;93.27;102628.53;5022126;28;20080;-80
2021/12/22 09:42:53;;;;;;;28.23;16.60;;;;;;;-1.10;93.41;102623.38;5037876;28;20053;-80
2021/12/22 09:45:19;;;;;;;37.20;17.60;;;;;;;-1.08;93.33;102621.75;5052255;28;20038;-80
2021/12/22 09:48:03;;;;;;;27.52;16.23;;;;;;;-1.07;93.29;102618.38;5025757;28;20025;-80
2021/12/22 09:53:13;;;;;;;30.42;16.45;;;;;;;-1.01;93.61;102615.13;5028414;28;20025;-80
2021/12/22 09:55:39;;;;;;;35.17;16.58;;;;;;;-1.00;93.70;102619.44;4992934;28;20070;-80
2021/12/22 09:58:04;;;;;;;27.20;16.08;;;;;;;-0.97;93.75;102610.13;5031846;28;20209;-80
2021/12/22 10:00:32;;;;;;;31.88;17.50;;;;;;;-0.94;93.65;102613.66;5023406;28;20047;-80
2021/12/22 10:02:58;;;;;;;32.30;17.45;;;;;;;-0.91;93.86;102614.66;5022855;28;20380;-80
2021/12/22 10:05:23;;;;;;;31.75;15.88;;;;;;;-0.88;94.00;102616.44;5026863;28;20067;-80
2021/12/22 10:08:08;;;;;;;34.30;17.55;;;;;;;-0.87;94.03;102613.94;5028640;28;20041;-80
2021/12/22 10:10:34;;;;;;;29.17;16.83;;;;;;;-0.84;93.99;102608.00;5025737;28;20056;-80
2021/12/22 10:13:13;;;;;;;31.25;17.60;;;;;;;-0.83;94.18;102602.91;5023851;28;20127;-80
2021/12/22 10:15:38;;;;;;;34.60;18.15;;;;;;;-0.80;94.12;102612.41;5035342;28;20029;-81
2021/12/22 10:18:13;;;;;;;31.42;17.98;;;;;;;-0.79;94.23;102609.91;5025274;28;20045;-81
2021/12/22 10:20:38;;;;;;;37.17;19.05;;;;;;;-0.76;94.40;102609.16;5024565;28;20037;-81
2021/12/22 10:23:24;;;;;;;30.73;17.63;;;;;;;-0.72;94.46;102605.84;5011267;28;20081;-81
2021/12/22 10:25:51;;;;;;;36.75;18.42;;;;;;;-0.69;94.69;102602.50;5011362;28;20345;-81
2021/12/22 10:28:19;;;;;;;32.63;18.20;;;;;;;-0.67;94.61;102612.03;5026090;28;20034;-81
2021/12/22 10:30:44;;;;;;;36.45;19.05;;;;;;;-0.63;94.78;102601.03;5026871;28;20454;-81
2021/12/22 10:33:17;;;;;;;31.55;18.88;;;;;;;-0.60;94.74;102606.28;5010241;28;20101;-81
2021/12/22 10:35:48;;;;;;;35.63;18.83;;;;;;;-0.57;94.76;102602.91;5022796;28;20099;-81
2021/12/22 10:38:15;;;;;;;37.50;19.80;;;;;;;-0.54;94.86;102608.19;5037049;28;20104;-81
2021/12/22 10:40:45;;;;;;;31.77;19.10;;;;;;;-0.51;94.83;102603.16;5021928;28;20044;-81
2021/12/22 10:43:22;;;;;;;32.83;18.45;;;;;;;-0.48;95.05;102603.22;5026040;28;20048;-82
2021/12/22 10:45:52;;;;;;;30.02;18.95;;;;;;;-0.45;95.12;102605.91;4991605;28;20064;-82
2021/12/22 10:51:08;;;;;;;33.97;18.48;;;;;;;-0.39;95.11;102605.22;5038587;28;20114;-84
2021/12/22 10:53:40;;;;;;;31.80;18.33;;;;;;;-0.34;95.03;102598.53;5021231;28;20249;-83
2021/12/22 10:56:06;;;;;;;32.60;18.50;;;;;;;-0.31;95.22;102587.47;5006032;28;20033;-83
2021/12/22 10:58:34;;;;;;;32.38;18.83;;;;;;;-0.29;95.37;102590.94;5025321;28;20039;-82
2021/12/22 11:01:04;;;;;;;31.33;18.48;;;;;;;-0.26;95.20;102589.34;5041054;28;20044;-83
2021/12/22 11:03:51;;;;;;;28.77;19.10;;;;;;;-0.23;95.35;102583.44;5043959;28;20060;-83
2021/12/22 11:06:27;;;;;;;29.98;18.52;;;;;;;-0.20;95.44;102578.38;5007587;28;20043;-83
2021/12/22 11:08:53;;;;;;;31.48;18.35;;;;;;;-0.16;95.40;102572.50;5036593;28;20088;-83
2021/12/22 11:11:18;;;;;;;33.10;18.58;;;;;;;-0.13;95.29;102566.56;5041349;28;20053;-83
2021/12/22 11:13:44;;;;;;;28.80;16.35;;;;;;;-0.10;95.57;102562.38;5021165;28;20057;-83
2021/12/22 11:16:13;;;;;;;28.20;18.08;;;;;;;-0.08;95.58;102565.88;5027259;28;20014;-83
2021/12/22 11:18:38;;;;;;;29.25;17.20;;;;;;;-0.04;95.51;102554.88;5006463;28;20064;-83
2021/12/22 11:21:07;;;;;;;28.77;17.70;;;;;;;-0.02;95.65;102542.91;5018182;28;20037;-83
2021/12/22 11:23:32;;;;;;;27.02;16.83;;;;;;;0.01;95.74;102534.38;5034420;28;20045;-83
2021/12/22 11:25:58;;;;;;;26.27;16.80;;;;;;;0.05;95.73;102543.94;5011334;28;20040;-83